Strona główna
METAR-TAF:

METAR-TAF

Lotnisko :

Port lotniczy Heringsdorf

Heringsdorf, Niemcy

Szerokość geograficzna: 53-53N, Długość geograficzna: 014-09E, wysokość: 28 m

Aktualna obserwacja pogody

Raport powstał 39 minut temu, godzina 09:20 UTC
Wiatr 6 kt z kierunków zmiennych
Temperatura 22°C
Wilgotność 50%
Ciśnienie 1021 hPa
Widzialność 10 km lub więcej
Przerywane chmury na wysokości 3900 ft

METAR: EDAH 180920Z VRB06KT 9999 BKN039 22/11 Q1021

czas: 11:59 (09:59 UTC)

Prognoza

Raport powstał 1 godzina i 59 minut temu, godzina 08:00 UTC
Prognoza ważna od 18 godzina 09 UTC do 18 godzina 18 UTC
Wiatr 6 kt od zachodnio-północny zachód
Widzialność 10 km lub więcej
Brak chmur poniżej 1500 m i brak chmur cumulonimbus
Stopniowe zmiany
od 18 godzina 12 UTC do 18 godzina 15 UTC
Wiatr 6 kt od północny wschód

TAF: EDAH 180800Z 1809/1818 29006KT CAVOK BECMG 1812/1815 04006KT

Obserwacja i prognoza pogody dla ponad 4000 lotnisk (raport METAR i TAF).

Dostępne stacje oznaczono żółtymi i czerwonymi punktami na mapie.

Najedź kursorem aby zobaczyć nazwę stacji.

Kliknij aby zobaczyć obserwacje i prognozy pogody.

Aby zmienić mapę: kliknij na zielony przycisk z czarnym krzyżykiem, aby powiększyć; na zielony przycisk z myślnikiem, aby pomniejszyć; na zielone strzałki, aby przejść do map sąsiednich.


METAR-TAF: